sensor_id;sensor_type;location;lat;lon;timestamp;P1;durP1;ratioP1;P2;durP2;ratioP2
7587;SDS011;3835;48.850;8.938;2024-03-08T00:01:46;31.37;;;25.23;;
7587;SDS011;3835;48.850;8.938;2024-03-08T00:04:12;30.97;;;24.47;;
7587;SDS011;3835;48.850;8.938;2024-03-08T00:06:41;33.13;;;26.67;;
7587;SDS011;3835;48.850;8.938;2024-03-08T00:09:11;28.43;;;23.83;;
7587;SDS011;3835;48.850;8.938;2024-03-08T00:11:37;30.50;;;24.07;;
7587;SDS011;3835;48.850;8.938;2024-03-08T00:14:04;30.00;;;24.83;;
7587;SDS011;3835;48.850;8.938;2024-03-08T00:16:32;28.83;;;24.10;;
7587;SDS011;3835;48.850;8.938;2024-03-08T00:18:58;31.20;;;23.93;;
7587;SDS011;3835;48.850;8.938;2024-03-08T00:21:25;31.27;;;26.13;;
7587;SDS011;3835;48.850;8.938;2024-03-08T00:23:54;28.63;;;25.33;;
7587;SDS011;3835;48.850;8.938;2024-03-08T00:26:21;29.00;;;24.77;;
7587;SDS011;3835;48.850;8.938;2024-03-08T00:28:48;27.10;;;23.00;;
7587;SDS011;3835;48.850;8.938;2024-03-08T00:31:15;28.70;;;24.97;;
7587;SDS011;3835;48.850;8.938;2024-03-08T00:33:42;31.67;;;23.20;;
7587;SDS011;3835;48.850;8.938;2024-03-08T00:36:08;31.03;;;23.77;;
7587;SDS011;3835;48.850;8.938;2024-03-08T00:38:35;29.67;;;24.83;;
7587;SDS011;3835;48.850;8.938;2024-03-08T00:41:03;30.83;;;25.60;;
7587;SDS011;3835;48.850;8.938;2024-03-08T00:43:30;30.30;;;25.93;;
7587;SDS011;3835;48.850;8.938;2024-03-08T00:45:57;37.07;;;24.73;;
7587;SDS011;3835;48.850;8.938;2024-03-08T00:48:24;30.33;;;24.17;;
7587;SDS011;3835;48.850;8.938;2024-03-08T00:50:51;31.87;;;25.40;;
7587;SDS011;3835;48.850;8.938;2024-03-08T00:53:17;31.83;;;25.63;;
7587;SDS011;3835;48.850;8.938;2024-03-08T00:55:44;30.07;;;24.17;;
7587;SDS011;3835;48.850;8.938;2024-03-08T00:58:13;32.77;;;26.03;;
7587;SDS011;3835;48.850;8.938;2024-03-08T01:00:40;29.63;;;23.93;;
7587;SDS011;3835;48.850;8.938;2024-03-08T01:03:07;30.40;;;25.23;;
7587;SDS011;3835;48.850;8.938;2024-03-08T01:05:35;34.63;;;24.80;;
7587;SDS011;3835;48.850;8.938;2024-03-08T01:08:02;33.50;;;26.13;;
7587;SDS011;3835;48.850;8.938;2024-03-08T01:10:30;34.83;;;25.27;;
7587;SDS011;3835;48.850;8.938;2024-03-08T01:12:57;32.57;;;24.63;;
7587;SDS011;3835;48.850;8.938;2024-03-08T01:15:26;34.43;;;26.03;;
7587;SDS011;3835;48.850;8.938;2024-03-08T01:17:52;30.87;;;26.77;;
7587;SDS011;3835;48.850;8.938;2024-03-08T01:20:20;33.63;;;26.87;;
7587;SDS011;3835;48.850;8.938;2024-03-08T01:22:46;30.23;;;25.30;;
7587;SDS011;3835;48.850;8.938;2024-03-08T01:25:13;32.37;;;25.90;;
7587;SDS011;3835;48.850;8.938;2024-03-08T01:27:40;31.00;;;24.50;;
7587;SDS011;3835;48.850;8.938;2024-03-08T01:30:07;33.23;;;26.03;;
7587;SDS011;3835;48.850;8.938;2024-03-08T01:32:37;30.43;;;24.80;;
7587;SDS011;3835;48.850;8.938;2024-03-08T01:35:04;29.67;;;24.70;;
7587;SDS011;3835;48.850;8.938;2024-03-08T01:37:34;29.57;;;25.03;;
7587;SDS011;3835;48.850;8.938;2024-03-08T01:40:01;32.47;;;25.27;;
7587;SDS011;3835;48.850;8.938;2024-03-08T01:42:28;32.67;;;25.30;;
7587;SDS011;3835;48.850;8.938;2024-03-08T01:44:56;32.07;;;25.17;;
7587;SDS011;3835;48.850;8.938;2024-03-08T01:47:22;29.80;;;25.23;;
7587;SDS011;3835;48.850;8.938;2024-03-08T01:49:51;28.47;;;25.47;;
7587;SDS011;3835;48.850;8.938;2024-03-08T01:52:18;31.37;;;25.63;;
7587;SDS011;3835;48.850;8.938;2024-03-08T01:54:45;30.50;;;25.27;;
7587;SDS011;3835;48.850;8.938;2024-03-08T01:57:12;31.67;;;24.83;;
7587;SDS011;3835;48.850;8.938;2024-03-08T01:59:40;31.27;;;25.70;;
7587;SDS011;3835;48.850;8.938;2024-03-08T02:02:08;28.53;;;22.47;;
7587;SDS011;3835;48.850;8.938;2024-03-08T02:04:38;31.17;;;25.10;;
7587;SDS011;3835;48.850;8.938;2024-03-08T02:07:07;30.90;;;24.27;;
7587;SDS011;3835;48.850;8.938;2024-03-08T02:09:33;31.87;;;23.07;;
7587;SDS011;3835;48.850;8.938;2024-03-08T02:12:00;31.37;;;26.13;;
7587;SDS011;3835;48.850;8.938;2024-03-08T02:14:27;31.83;;;24.37;;
7587;SDS011;3835;48.850;8.938;2024-03-08T02:16:59;30.63;;;24.67;;
7587;SDS011;3835;48.850;8.938;2024-03-08T02:19:26;39.53;;;24.33;;
7587;SDS011;3835;48.850;8.938;2024-03-08T02:21:55;33.33;;;26.00;;
7587;SDS011;3835;48.850;8.938;2024-03-08T02:24:22;26.80;;;23.90;;
7587;SDS011;3835;48.850;8.938;2024-03-08T02:26:50;32.00;;;24.77;;
7587;SDS011;3835;48.850;8.938;2024-03-08T02:29:18;30.40;;;24.80;;
7587;SDS011;3835;48.850;8.938;2024-03-08T02:31:46;32.80;;;24.80;;
7587;SDS011;3835;48.850;8.938;2024-03-08T02:34:13;30.33;;;24.90;;
7587;SDS011;3835;48.850;8.938;2024-03-08T02:36:40;29.47;;;24.77;;
7587;SDS011;3835;48.850;8.938;2024-03-08T02:39:08;30.13;;;24.20;;
7587;SDS011;3835;48.850;8.938;2024-03-08T02:41:36;40.10;;;26.27;;
7587;SDS011;3835;48.850;8.938;2024-03-08T02:44:03;31.47;;;24.63;;
7587;SDS011;3835;48.850;8.938;2024-03-08T02:46:30;28.93;;;24.67;;
7587;SDS011;3835;48.850;8.938;2024-03-08T02:48:56;27.97;;;24.70;;
7587;SDS011;3835;48.850;8.938;2024-03-08T02:51:23;35.00;;;25.93;;
7587;SDS011;3835;48.850;8.938;2024-03-08T02:53:51;30.30;;;25.57;;
7587;SDS011;3835;48.850;8.938;2024-03-08T02:56:19;30.60;;;23.97;;
7587;SDS011;3835;48.850;8.938;2024-03-08T02:58:47;30.40;;;24.90;;
7587;SDS011;3835;48.850;8.938;2024-03-08T03:01:14;30.40;;;24.77;;
7587;SDS011;3835;48.850;8.938;2024-03-08T03:03:40;30.57;;;23.60;;
7587;SDS011;3835;48.850;8.938;2024-03-08T03:06:08;28.47;;;24.07;;
7587;SDS011;3835;48.850;8.938;2024-03-08T03:08:35;28.20;;;25.10;;
7587;SDS011;3835;48.850;8.938;2024-03-08T03:11:02;28.13;;;23.03;;
7587;SDS011;3835;48.850;8.938;2024-03-08T03:13:31;30.07;;;23.97;;
7587;SDS011;3835;48.850;8.938;2024-03-08T03:15:58;31.07;;;23.43;;
7587;SDS011;3835;48.850;8.938;2024-03-08T03:18:25;30.60;;;24.87;;
7587;SDS011;3835;48.850;8.938;2024-03-08T03:20:52;30.57;;;23.70;;
7587;SDS011;3835;48.850;8.938;2024-03-08T03:23:19;26.53;;;23.83;;
7587;SDS011;3835;48.850;8.938;2024-03-08T03:25:46;30.00;;;25.20;;
7587;SDS011;3835;48.850;8.938;2024-03-08T03:28:13;32.37;;;25.00;;
7587;SDS011;3835;48.850;8.938;2024-03-08T03:30:44;29.23;;;23.63;;
7587;SDS011;3835;48.850;8.938;2024-03-08T03:33:11;30.90;;;24.13;;
7587;SDS011;3835;48.850;8.938;2024-03-08T03:35:40;35.90;;;25.43;;
7587;SDS011;3835;48.850;8.938;2024-03-08T03:38:08;31.13;;;24.63;;
7587;SDS011;3835;48.850;8.938;2024-03-08T03:40:35;26.93;;;23.43;;
7587;SDS011;3835;48.850;8.938;2024-03-08T03:43:02;29.47;;;24.00;;
7587;SDS011;3835;48.850;8.938;2024-03-08T03:45:30;28.20;;;23.03;;
7587;SDS011;3835;48.850;8.938;2024-03-08T03:48:01;28.20;;;23.73;;
7587;SDS011;3835;48.850;8.938;2024-03-08T03:50:28;31.07;;;24.50;;
7587;SDS011;3835;48.850;8.938;2024-03-08T03:52:55;28.53;;;24.63;;
7587;SDS011;3835;48.850;8.938;2024-03-08T03:55:23;29.20;;;23.47;;
7587;SDS011;3835;48.850;8.938;2024-03-08T03:57:49;32.77;;;23.73;;
7587;SDS011;3835;48.850;8.938;2024-03-08T04:00:17;29.40;;;24.37;;
7587;SDS011;3835;48.850;8.938;2024-03-08T04:02:44;29.97;;;24.33;;
7587;SDS011;3835;48.850;8.938;2024-03-08T04:05:13;31.77;;;24.23;;
7587;SDS011;3835;48.850;8.938;2024-03-08T04:07:40;29.13;;;24.63;;
7587;SDS011;3835;48.850;8.938;2024-03-08T04:10:08;27.27;;;23.33;;
7587;SDS011;3835;48.850;8.938;2024-03-08T04:12:36;28.60;;;24.20;;
7587;SDS011;3835;48.850;8.938;2024-03-08T04:15:04;28.03;;;21.97;;
7587;SDS011;3835;48.850;8.938;2024-03-08T04:17:32;30.57;;;23.00;;
7587;SDS011;3835;48.850;8.938;2024-03-08T04:20:01;26.70;;;23.47;;
7587;SDS011;3835;48.850;8.938;2024-03-08T04:22:34;30.53;;;23.83;;
7587;SDS011;3835;48.850;8.938;2024-03-08T04:25:01;26.63;;;22.77;;
7587;SDS011;3835;48.850;8.938;2024-03-08T04:27:28;26.80;;;22.67;;
7587;SDS011;3835;48.850;8.938;2024-03-08T04:29:55;31.30;;;24.23;;
7587;SDS011;3835;48.850;8.938;2024-03-08T04:32:22;31.33;;;24.67;;
7587;SDS011;3835;48.850;8.938;2024-03-08T04:34:49;27.47;;;23.73;;
7587;SDS011;3835;48.850;8.938;2024-03-08T04:37:15;30.80;;;23.17;;
7587;SDS011;3835;48.850;8.938;2024-03-08T04:39:47;31.97;;;24.73;;
7587;SDS011;3835;48.850;8.938;2024-03-08T04:42:14;31.17;;;24.03;;
7587;SDS011;3835;48.850;8.938;2024-03-08T04:44:43;28.87;;;23.67;;
7587;SDS011;3835;48.850;8.938;2024-03-08T04:47:10;30.77;;;24.53;;
7587;SDS011;3835;48.850;8.938;2024-03-08T04:49:36;28.30;;;24.50;;
7587;SDS011;3835;48.850;8.938;2024-03-08T04:52:03;26.53;;;23.07;;
7587;SDS011;3835;48.850;8.938;2024-03-08T04:54:32;29.47;;;23.50;;
7587;SDS011;3835;48.850;8.938;2024-03-08T04:57:00;29.70;;;23.80;;
7587;SDS011;3835;48.850;8.938;2024-03-08T04:59:27;30.73;;;25.20;;
7587;SDS011;3835;48.850;8.938;2024-03-08T05:01:54;30.00;;;25.13;;
7587;SDS011;3835;48.850;8.938;2024-03-08T05:04:36;28.17;;;23.13;;
7587;SDS011;3835;48.850;8.938;2024-03-08T05:07:07;30.67;;;24.20;;
7587;SDS011;3835;48.850;8.938;2024-03-08T05:09:34;28.77;;;23.80;;
7587;SDS011;3835;48.850;8.938;2024-03-08T05:12:04;33.83;;;24.07;;
7587;SDS011;3835;48.850;8.938;2024-03-08T05:14:31;29.40;;;24.03;;
7587;SDS011;3835;48.850;8.938;2024-03-08T05:17:00;30.27;;;22.50;;
7587;SDS011;3835;48.850;8.938;2024-03-08T05:19:32;28.20;;;22.90;;
7587;SDS011;3835;48.850;8.938;2024-03-08T05:21:58;29.77;;;25.47;;
7587;SDS011;3835;48.850;8.938;2024-03-08T05:24:25;28.77;;;25.07;;
7587;SDS011;3835;48.850;8.938;2024-03-08T05:26:52;28.80;;;23.60;;
7587;SDS011;3835;48.850;8.938;2024-03-08T05:29:20;29.63;;;23.30;;
7587;SDS011;3835;48.850;8.938;2024-03-08T05:31:48;28.93;;;23.70;;
7587;SDS011;3835;48.850;8.938;2024-03-08T05:34:17;31.50;;;24.17;;
7587;SDS011;3835;48.850;8.938;2024-03-08T05:36:46;31.97;;;22.23;;
7587;SDS011;3835;48.850;8.938;2024-03-08T05:39:14;30.20;;;24.67;;
7587;SDS011;3835;48.850;8.938;2024-03-08T05:41:42;34.17;;;25.47;;
7587;SDS011;3835;48.850;8.938;2024-03-08T05:44:11;35.47;;;24.33;;
7587;SDS011;3835;48.850;8.938;2024-03-08T05:46:40;36.43;;;25.30;;
7587;SDS011;3835;48.850;8.938;2024-03-08T05:49:06;34.03;;;26.63;;
7587;SDS011;3835;48.850;8.938;2024-03-08T05:51:35;41.67;;;25.83;;
7587;SDS011;3835;48.850;8.938;2024-03-08T05:54:04;37.37;;;27.10;;
7587;SDS011;3835;48.850;8.938;2024-03-08T05:56:32;36.07;;;26.10;;
7587;SDS011;3835;48.850;8.938;2024-03-08T05:58:59;32.50;;;25.43;;
7587;SDS011;3835;48.850;8.938;2024-03-08T06:01:26;33.83;;;25.00;;
7587;SDS011;3835;48.850;8.938;2024-03-08T06:03:55;34.30;;;26.03;;
7587;SDS011;3835;48.850;8.938;2024-03-08T06:06:22;35.77;;;27.23;;
7587;SDS011;3835;48.850;8.938;2024-03-08T06:08:50;39.27;;;27.63;;
7587;SDS011;3835;48.850;8.938;2024-03-08T06:11:18;38.63;;;25.70;;
7587;SDS011;3835;48.850;8.938;2024-03-08T06:13:45;39.87;;;27.63;;
7587;SDS011;3835;48.850;8.938;2024-03-08T06:16:13;38.87;;;26.80;;
7587;SDS011;3835;48.850;8.938;2024-03-08T06:18:40;37.43;;;26.83;;
7587;SDS011;3835;48.850;8.938;2024-03-08T06:21:08;38.20;;;27.53;;
7587;SDS011;3835;48.850;8.938;2024-03-08T06:23:36;35.47;;;27.93;;
7587;SDS011;3835;48.850;8.938;2024-03-08T06:26:04;35.40;;;26.77;;
7587;SDS011;3835;48.850;8.938;2024-03-08T06:28:31;32.53;;;25.13;;
7587;SDS011;3835;48.850;8.938;2024-03-08T06:30:58;33.30;;;25.63;;
7587;SDS011;3835;48.850;8.938;2024-03-08T06:33:25;35.30;;;27.03;;
7587;SDS011;3835;48.850;8.938;2024-03-08T06:35:52;35.27;;;25.63;;
7587;SDS011;3835;48.850;8.938;2024-03-08T06:38:21;35.27;;;24.43;;
7587;SDS011;3835;48.850;8.938;2024-03-08T06:40:47;37.90;;;26.90;;
7587;SDS011;3835;48.850;8.938;2024-03-08T06:43:16;35.73;;;28.07;;
7587;SDS011;3835;48.850;8.938;2024-03-08T06:45:43;40.23;;;26.40;;
7587;SDS011;3835;48.850;8.938;2024-03-08T06:48:13;39.20;;;26.70;;
7587;SDS011;3835;48.850;8.938;2024-03-08T06:50:40;41.37;;;27.67;;
7587;SDS011;3835;48.850;8.938;2024-03-08T06:53:07;33.20;;;25.57;;
7587;SDS011;3835;48.850;8.938;2024-03-08T06:55:35;33.33;;;25.37;;
7587;SDS011;3835;48.850;8.938;2024-03-08T06:58:02;35.43;;;26.27;;
7587;SDS011;3835;48.850;8.938;2024-03-08T07:00:29;35.60;;;25.27;;
7587;SDS011;3835;48.850;8.938;2024-03-08T07:02:56;32.37;;;24.13;;
7587;SDS011;3835;48.850;8.938;2024-03-08T07:05:25;35.50;;;26.37;;
7587;SDS011;3835;48.850;8.938;2024-03-08T07:07:52;33.17;;;27.27;;
7587;SDS011;3835;48.850;8.938;2024-03-08T07:10:20;34.90;;;26.23;;
7587;SDS011;3835;48.850;8.938;2024-03-08T07:12:50;32.73;;;26.70;;
7587;SDS011;3835;48.850;8.938;2024-03-08T07:15:18;32.37;;;25.97;;
7587;SDS011;3835;48.850;8.938;2024-03-08T07:17:46;31.30;;;26.10;;
7587;SDS011;3835;48.850;8.938;2024-03-08T07:20:12;29.57;;;24.80;;
7587;SDS011;3835;48.850;8.938;2024-03-08T07:22:43;30.13;;;25.10;;
7587;SDS011;3835;48.850;8.938;2024-03-08T07:25:12;34.23;;;27.30;;
7587;SDS011;3835;48.850;8.938;2024-03-08T07:27:46;32.67;;;26.87;;
7587;SDS011;3835;48.850;8.938;2024-03-08T07:30:15;29.97;;;25.03;;
7587;SDS011;3835;48.850;8.938;2024-03-08T07:32:58;32.03;;;27.27;;
7587;SDS011;3835;48.850;8.938;2024-03-08T07:35:27;32.90;;;26.00;;
7587;SDS011;3835;48.850;8.938;2024-03-08T07:37:54;31.47;;;25.07;;
7587;SDS011;3835;48.850;8.938;2024-03-08T07:40:21;28.77;;;25.10;;
7587;SDS011;3835;48.850;8.938;2024-03-08T07:42:48;30.37;;;25.67;;
7587;SDS011;3835;48.850;8.938;2024-03-08T07:45:16;30.80;;;25.77;;
7587;SDS011;3835;48.850;8.938;2024-03-08T07:47:43;31.87;;;24.63;;
7587;SDS011;3835;48.850;8.938;2024-03-08T07:50:10;32.33;;;25.03;;
7587;SDS011;3835;48.850;8.938;2024-03-08T07:52:41;28.63;;;24.40;;
7587;SDS011;3835;48.850;8.938;2024-03-08T07:55:08;31.53;;;25.17;;
7587;SDS011;3835;48.850;8.938;2024-03-08T07:57:36;31.87;;;25.90;;
7587;SDS011;3835;48.850;8.938;2024-03-08T08:00:04;32.73;;;25.33;;
7587;SDS011;3835;48.850;8.938;2024-03-08T08:02:35;31.43;;;24.63;;
7587;SDS011;3835;48.850;8.938;2024-03-08T08:05:02;32.60;;;26.00;;
7587;SDS011;3835;48.850;8.938;2024-03-08T08:07:29;33.30;;;25.47;;
7587;SDS011;3835;48.850;8.938;2024-03-08T08:09:56;31.30;;;25.80;;
7587;SDS011;3835;48.850;8.938;2024-03-08T08:12:23;29.70;;;25.27;;
7587;SDS011;3835;48.850;8.938;2024-03-08T08:14:50;31.80;;;24.33;;
7587;SDS011;3835;48.850;8.938;2024-03-08T08:17:17;29.07;;;24.53;;
7587;SDS011;3835;48.850;8.938;2024-03-08T08:19:46;28.43;;;23.43;;
7587;SDS011;3835;48.850;8.938;2024-03-08T08:22:13;26.87;;;23.87;;
7587;SDS011;3835;48.850;8.938;2024-03-08T08:24:40;33.10;;;25.87;;
7587;SDS011;3835;48.850;8.938;2024-03-08T08:27:07;28.33;;;25.13;;
7587;SDS011;3835;48.850;8.938;2024-03-08T08:29:34;30.50;;;27.20;;
7587;SDS011;3835;48.850;8.938;2024-03-08T08:32:01;28.40;;;25.33;;
7587;SDS011;3835;48.850;8.938;2024-03-08T08:34:29;29.30;;;24.90;;
7587;SDS011;3835;48.850;8.938;2024-03-08T08:36:57;26.13;;;23.37;;
7587;SDS011;3835;48.850;8.938;2024-03-08T08:39:24;27.40;;;23.30;;
7587;SDS011;3835;48.850;8.938;2024-03-08T08:41:51;27.83;;;24.87;;
7587;SDS011;3835;48.850;8.938;2024-03-08T08:44:18;28.07;;;25.07;;
7587;SDS011;3835;48.850;8.938;2024-03-08T08:46:46;27.00;;;24.17;;
7587;SDS011;3835;48.850;8.938;2024-03-08T08:49:13;28.63;;;24.47;;
7587;SDS011;3835;48.850;8.938;2024-03-08T08:51:48;29.10;;;26.20;;
7587;SDS011;3835;48.850;8.938;2024-03-08T08:54:17;25.60;;;22.97;;
7587;SDS011;3835;48.850;8.938;2024-03-08T08:56:45;27.33;;;24.23;;
7587;SDS011;3835;48.850;8.938;2024-03-08T08:59:13;25.90;;;23.30;;
7587;SDS011;3835;48.850;8.938;2024-03-08T09:01:40;26.93;;;23.00;;
7587;SDS011;3835;48.850;8.938;2024-03-08T09:04:07;26.47;;;23.20;;
7587;SDS011;3835;48.850;8.938;2024-03-08T09:06:36;25.13;;;22.43;;
7587;SDS011;3835;48.850;8.938;2024-03-08T09:09:03;28.00;;;23.67;;
7587;SDS011;3835;48.850;8.938;2024-03-08T09:11:32;26.93;;;24.17;;
7587;SDS011;3835;48.850;8.938;2024-03-08T09:13:59;27.63;;;23.07;;
7587;SDS011;3835;48.850;8.938;2024-03-08T09:16:27;25.90;;;23.13;;
7587;SDS011;3835;48.850;8.938;2024-03-08T09:18:54;25.63;;;22.80;;
7587;SDS011;3835;48.850;8.938;2024-03-08T09:21:20;25.63;;;22.93;;
7587;SDS011;3835;48.850;8.938;2024-03-08T09:23:47;24.73;;;22.20;;
7587;SDS011;3835;48.850;8.938;2024-03-08T09:26:14;24.77;;;22.13;;
7587;SDS011;3835;48.850;8.938;2024-03-08T09:28:43;24.77;;;22.13;;
7587;SDS011;3835;48.850;8.938;2024-03-08T09:31:10;25.67;;;22.90;;
7587;SDS011;3835;48.850;8.938;2024-03-08T09:33:37;27.83;;;23.17;;
7587;SDS011;3835;48.850;8.938;2024-03-08T09:36:04;28.93;;;25.00;;
7587;SDS011;3835;48.850;8.938;2024-03-08T09:38:32;31.63;;;28.63;;
7587;SDS011;3835;48.850;8.938;2024-03-08T09:41:00;29.70;;;25.17;;
7587;SDS011;3835;48.850;8.938;2024-03-08T09:43:29;28.93;;;25.73;;
7587;SDS011;3835;48.850;8.938;2024-03-08T09:45:58;27.40;;;24.53;;
7587;SDS011;3835;48.850;8.938;2024-03-08T09:48:25;27.27;;;23.97;;
7587;SDS011;3835;48.850;8.938;2024-03-08T09:50:54;28.07;;;23.63;;
7587;SDS011;3835;48.850;8.938;2024-03-08T09:53:21;25.73;;;22.87;;
7587;SDS011;3835;48.850;8.938;2024-03-08T09:55:49;26.30;;;21.90;;
7587;SDS011;3835;48.850;8.938;2024-03-08T09:58:17;25.43;;;22.33;;
7587;SDS011;3835;48.850;8.938;2024-03-08T10:01:03;23.53;;;21.07;;
7587;SDS011;3835;48.850;8.938;2024-03-08T10:03:31;23.40;;;20.80;;
7587;SDS011;3835;48.850;8.938;2024-03-08T10:05:58;25.00;;;22.47;;
7587;SDS011;3835;48.850;8.938;2024-03-08T10:08:26;25.23;;;22.53;;
7587;SDS011;3835;48.850;8.938;2024-03-08T10:10:54;24.63;;;21.40;;
7587;SDS011;3835;48.850;8.938;2024-03-08T10:13:23;24.77;;;21.20;;
7587;SDS011;3835;48.850;8.938;2024-03-08T10:15:53;24.57;;;22.13;;
7587;SDS011;3835;48.850;8.938;2024-03-08T10:18:21;24.43;;;21.83;;
7587;SDS011;3835;48.850;8.938;2024-03-08T10:21:01;24.80;;;22.13;;
7587;SDS011;3835;48.850;8.938;2024-03-08T10:23:30;23.90;;;21.37;;
7587;SDS011;3835;48.850;8.938;2024-03-08T10:26:04;25.67;;;22.97;;
7587;SDS011;3835;48.850;8.938;2024-03-08T10:28:35;25.53;;;22.83;;
7587;SDS011;3835;48.850;8.938;2024-03-08T10:31:02;24.87;;;22.27;;
7587;SDS011;3835;48.850;8.938;2024-03-08T10:33:32;24.07;;;21.57;;
7587;SDS011;3835;48.850;8.938;2024-03-08T10:35:59;24.37;;;21.10;;
7587;SDS011;3835;48.850;8.938;2024-03-08T10:38:28;24.80;;;22.27;;
7587;SDS011;3835;48.850;8.938;2024-03-08T10:40:58;25.73;;;23.10;;
7587;SDS011;3835;48.850;8.938;2024-03-08T10:43:26;25.97;;;22.27;;
7587;SDS011;3835;48.850;8.938;2024-03-08T10:46:04;25.50;;;22.87;;
7587;SDS011;3835;48.850;8.938;2024-03-08T10:48:44;24.10;;;21.03;;
7587;SDS011;3835;48.850;8.938;2024-03-08T10:51:13;28.03;;;21.90;;
7587;SDS011;3835;48.850;8.938;2024-03-08T10:53:41;29.43;;;23.53;;
7587;SDS011;3835;48.850;8.938;2024-03-08T10:56:10;26.90;;;22.93;;
7587;SDS011;3835;48.850;8.938;2024-03-08T10:58:39;25.00;;;22.40;;
7587;SDS011;3835;48.850;8.938;2024-03-08T11:01:09;25.13;;;22.13;;
7587;SDS011;3835;48.850;8.938;2024-03-08T11:03:47;23.83;;;21.13;;
7587;SDS011;3835;48.850;8.938;2024-03-08T11:06:18;25.80;;;21.27;;
7587;SDS011;3835;48.850;8.938;2024-03-08T11:08:49;25.27;;;21.77;;
7587;SDS011;3835;48.850;8.938;2024-03-08T11:11:26;25.57;;;22.83;;
7587;SDS011;3835;48.850;8.938;2024-03-08T11:13:55;24.37;;;21.73;;
7587;SDS011;3835;48.850;8.938;2024-03-08T11:16:39;23.83;;;21.03;;
7587;SDS011;3835;48.850;8.938;2024-03-08T11:22:00;23.17;;;20.57;;
7587;SDS011;3835;48.850;8.938;2024-03-08T11:24:26;23.37;;;20.90;;
7587;SDS011;3835;48.850;8.938;2024-03-08T11:26:56;24.97;;;19.90;;
7587;SDS011;3835;48.850;8.938;2024-03-08T11:29:35;29.07;;;21.97;;
7587;SDS011;3835;48.850;8.938;2024-03-08T11:32:05;23.87;;;21.47;;
7587;SDS011;3835;48.850;8.938;2024-03-08T11:34:37;24.23;;;21.73;;
7587;SDS011;3835;48.850;8.938;2024-03-08T11:37:06;24.20;;;21.70;;
7587;SDS011;3835;48.850;8.938;2024-03-08T11:39:38;25.40;;;21.83;;
7587;SDS011;3835;48.850;8.938;2024-03-08T11:42:06;24.00;;;21.47;;
7587;SDS011;3835;48.850;8.938;2024-03-08T11:44:33;25.43;;;21.67;;
7587;SDS011;3835;48.850;8.938;2024-03-08T11:47:01;24.63;;;21.03;;
7587;SDS011;3835;48.850;8.938;2024-03-08T11:49:31;22.80;;;20.43;;
7587;SDS011;3835;48.850;8.938;2024-03-08T11:51:59;23.33;;;20.50;;
7587;SDS011;3835;48.850;8.938;2024-03-08T11:54:28;23.60;;;21.10;;
7587;SDS011;3835;48.850;8.938;2024-03-08T11:56:56;23.77;;;21.23;;
7587;SDS011;3835;48.850;8.938;2024-03-08T11:59:26;23.73;;;21.30;;
7587;SDS011;3835;48.850;8.938;2024-03-08T12:02:01;27.43;;;22.97;;
7587;SDS011;3835;48.850;8.938;2024-03-08T12:04:29;24.93;;;21.80;;
7587;SDS011;3835;48.850;8.938;2024-03-08T12:07:00;24.23;;;21.93;;
7587;SDS011;3835;48.850;8.938;2024-03-08T12:09:33;26.57;;;22.50;;
7587;SDS011;3835;48.850;8.938;2024-03-08T12:12:01;29.47;;;22.57;;
7587;SDS011;3835;48.850;8.938;2024-03-08T12:14:29;25.07;;;22.43;;
7587;SDS011;3835;48.850;8.938;2024-03-08T12:16:57;24.60;;;22.23;;
7587;SDS011;3835;48.850;8.938;2024-03-08T12:19:25;23.70;;;21.23;;
7587;SDS011;3835;48.850;8.938;2024-03-08T12:21:53;25.03;;;22.43;;
7587;SDS011;3835;48.850;8.938;2024-03-08T12:24:21;24.10;;;21.40;;
7587;SDS011;3835;48.850;8.938;2024-03-08T12:26:48;25.03;;;22.33;;
7587;SDS011;3835;48.850;8.938;2024-03-08T12:29:19;25.33;;;22.60;;
7587;SDS011;3835;48.850;8.938;2024-03-08T12:31:47;27.30;;;23.73;;
7587;SDS011;3835;48.850;8.938;2024-03-08T12:34:17;24.60;;;22.07;;
7587;SDS011;3835;48.850;8.938;2024-03-08T12:36:45;24.80;;;22.30;;
7587;SDS011;3835;48.850;8.938;2024-03-08T12:39:15;26.50;;;23.70;;
7587;SDS011;3835;48.850;8.938;2024-03-08T12:41:44;26.50;;;23.53;;
7587;SDS011;3835;48.850;8.938;2024-03-08T12:44:11;25.37;;;21.80;;
7587;SDS011;3835;48.850;8.938;2024-03-08T12:46:38;25.37;;;22.67;;
7587;SDS011;3835;48.850;8.938;2024-03-08T12:49:07;25.40;;;22.80;;
7587;SDS011;3835;48.850;8.938;2024-03-08T12:51:36;23.70;;;21.17;;
7587;SDS011;3835;48.850;8.938;2024-03-08T12:54:03;24.17;;;21.50;;
7587;SDS011;3835;48.850;8.938;2024-03-08T12:56:33;26.63;;;23.77;;
7587;SDS011;3835;48.850;8.938;2024-03-08T12:59:04;25.00;;;22.47;;
7587;SDS011;3835;48.850;8.938;2024-03-08T13:01:31;25.70;;;23.00;;
7587;SDS011;3835;48.850;8.938;2024-03-08T13:03:58;24.93;;;22.40;;
7587;SDS011;3835;48.850;8.938;2024-03-08T13:06:26;25.27;;;22.33;;
7587;SDS011;3835;48.850;8.938;2024-03-08T13:08:54;25.27;;;22.13;;
7587;SDS011;3835;48.850;8.938;2024-03-08T13:11:21;27.10;;;24.30;;
7587;SDS011;3835;48.850;8.938;2024-03-08T13:13:49;27.47;;;24.57;;
7587;SDS011;3835;48.850;8.938;2024-03-08T13:16:18;23.97;;;21.27;;
7587;SDS011;3835;48.850;8.938;2024-03-08T13:18:46;24.20;;;21.70;;
7587;SDS011;3835;48.850;8.938;2024-03-08T13:21:14;25.47;;;22.67;;
7587;SDS011;3835;48.850;8.938;2024-03-08T13:23:44;24.83;;;22.13;;
7587;SDS011;3835;48.850;8.938;2024-03-08T13:26:14;27.17;;;22.80;;
7587;SDS011;3835;48.850;8.938;2024-03-08T13:28:41;26.53;;;23.00;;
7587;SDS011;3835;48.850;8.938;2024-03-08T13:31:09;26.27;;;23.20;;
7587;SDS011;3835;48.850;8.938;2024-03-08T13:33:37;25.57;;;22.80;;
7587;SDS011;3835;48.850;8.938;2024-03-08T13:36:06;26.33;;;23.53;;
7587;SDS011;3835;48.850;8.938;2024-03-08T13:38:39;28.87;;;23.10;;
7587;SDS011;3835;48.850;8.938;2024-03-08T13:41:08;30.53;;;22.93;;
7587;SDS011;3835;48.850;8.938;2024-03-08T13:43:36;28.23;;;24.43;;
7587;SDS011;3835;48.850;8.938;2024-03-08T13:46:03;28.87;;;24.10;;
7587;SDS011;3835;48.850;8.938;2024-03-08T13:48:30;28.77;;;23.13;;
7587;SDS011;3835;48.850;8.938;2024-03-08T13:50:59;27.73;;;22.57;;
7587;SDS011;3835;48.850;8.938;2024-03-08T13:53:25;27.40;;;22.33;;
7587;SDS011;3835;48.850;8.938;2024-03-08T13:55:52;28.37;;;22.00;;
7587;SDS011;3835;48.850;8.938;2024-03-08T13:58:19;28.10;;;22.67;;
7587;SDS011;3835;48.850;8.938;2024-03-08T14:00:46;24.73;;;20.70;;
7587;SDS011;3835;48.850;8.938;2024-03-08T14:03:13;27.73;;;24.10;;
7587;SDS011;3835;48.850;8.938;2024-03-08T14:05:40;25.83;;;22.97;;
7587;SDS011;3835;48.850;8.938;2024-03-08T14:08:09;30.53;;;22.90;;
7587;SDS011;3835;48.850;8.938;2024-03-08T14:10:37;28.43;;;22.90;;
7587;SDS011;3835;48.850;8.938;2024-03-08T14:13:04;26.93;;;24.00;;
7587;SDS011;3835;48.850;8.938;2024-03-08T14:15:32;26.80;;;23.90;;
7587;SDS011;3835;48.850;8.938;2024-03-08T14:17:59;24.87;;;22.37;;
7587;SDS011;3835;48.850;8.938;2024-03-08T14:20:27;25.37;;;22.67;;
7587;SDS011;3835;48.850;8.938;2024-03-08T14:22:54;25.80;;;21.90;;
7587;SDS011;3835;48.850;8.938;2024-03-08T14:25:23;23.43;;;20.93;;
7587;SDS011;3835;48.850;8.938;2024-03-08T14:27:50;24.93;;;21.77;;
7587;SDS011;3835;48.850;8.938;2024-03-08T14:30:19;26.20;;;22.37;;
7587;SDS011;3835;48.850;8.938;2024-03-08T14:32:59;24.73;;;21.77;;
7587;SDS011;3835;48.850;8.938;2024-03-08T14:35:26;26.13;;;20.93;;
7587;SDS011;3835;48.850;8.938;2024-03-08T14:37:54;28.43;;;23.33;;
7587;SDS011;3835;48.850;8.938;2024-03-08T14:40:23;25.20;;;21.77;;
7587;SDS011;3835;48.850;8.938;2024-03-08T14:42:51;27.17;;;24.37;;
7587;SDS011;3835;48.850;8.938;2024-03-08T14:45:18;25.97;;;22.03;;
7587;SDS011;3835;48.850;8.938;2024-03-08T14:47:45;28.27;;;22.73;;
7587;SDS011;3835;48.850;8.938;2024-03-08T14:50:15;27.50;;;22.73;;
7587;SDS011;3835;48.850;8.938;2024-03-08T14:52:42;27.83;;;22.03;;
7587;SDS011;3835;48.850;8.938;2024-03-08T14:55:09;25.83;;;22.23;;
7587;SDS011;3835;48.850;8.938;2024-03-08T14:57:40;25.33;;;20.77;;